»·PEaware :: N4462U KMHV-KVGT

N4462U :: KMHV-KVGT

FLIGHT INFORMATION

Flight Status: Arrived
Operator: Privately registered:
United States
More flights under this callsign
Pilot: Robert C. (26285)
Aircraft: SOCATA TBM-850
(TBM8)
More flights by this aircraft type
Origin: KMHV Mojave
United States
Destination: KVGT North Las Vegas
United States
More flights between these airports :: More routes between these airports
Route: JERID5 JERID V197 PMD J6 HEC KONNG NTNDO1
File this flight plan on PilotEdge
Remarks:
Altitude:
(Current/Filed)
25,000ft
Speed:
(Current/Filed)
311kts
Departed: 29-Nov-23 02:35 PM
Arrived: 29-Nov-23 03:45 PM
Distance/Time
Traveled:
160nm/1:09
Distance/Time
To Go:
Arrived

Flight Plot

Page will automatically refresh every two minutes.

Flight plan parsing failed; only flown route is shown


Map Options




Map Legend


Flown Route
Filed Route
Departure Airport
Arrival Airport
Navaid (VOR, NDB)
Fix

Horizontal Profiles

Position Reports

Time Latitude Longitude Heading Altitude Ground
Speed
29-Nov-23 14:11 35.057194 -118.153759 90 2760ft 0kts
29-Nov-23 14:12 35.057194 -118.153759 90 2760ft 0kts
29-Nov-23 14:13 35.057194 -118.153759 90 2760ft 0kts
29-Nov-23 14:14 35.057194 -118.153759 90 2760ft 0kts
29-Nov-23 14:15 35.057194 -118.153759 90 2760ft 0kts
29-Nov-23 14:16 35.057194 -118.153759 90 2760ft 0kts
29-Nov-23 14:17 35.057194 -118.153759 90 2760ft 0kts
29-Nov-23 14:18 35.057194 -118.153759 90 2760ft 0kts
29-Nov-23 14:19 35.057194 -118.153759 90 2760ft 0kts
29-Nov-23 14:20 35.057194 -118.153759 90 2760ft 0kts
29-Nov-23 14:21 35.057194 -118.153759 90 2760ft 0kts
29-Nov-23 14:22 35.057194 -118.153759 90 2760ft 0kts
29-Nov-23 14:23 35.057194 -118.153759 90 2760ft 0kts
29-Nov-23 14:24 35.057194 -118.153759 90 2769ft 0kts
29-Nov-23 14:25 35.057194 -118.153759 90 2769ft 0kts
29-Nov-23 14:26 35.057194 -118.153759 90 2769ft 0kts
29-Nov-23 14:27 35.057194 -118.153759 90 2769ft 0kts
29-Nov-23 14:28 35.057194 -118.153759 90 2769ft 0kts
29-Nov-23 14:30 35.057605 -118.153474 38 2759ft 6kts
29-Nov-23 14:31 35.057625 -118.149280 90 2751ft 13kts
29-Nov-23 14:32 35.057633 -118.147204 89 2749ft 14kts
29-Nov-23 14:33 35.058033 -118.142572 2 2739ft 7kts
29-Nov-23 14:34 35.059191 -118.142989 268 2740ft 14kts
29-Nov-23 14:35 35.059156 -118.171564 272 3505ft 125kts
29-Nov-23 14:36 35.039012 -118.208988 226 5287ft 147kts
29-Nov-23 14:37 35.006683 -118.241558 225 7128ft 153kts
29-Nov-23 14:38 34.973409 -118.275618 226 8952ft 160kts
29-Nov-23 14:39 34.938605 -118.311396 225 10734ft 165kts
29-Nov-23 14:40 34.902043 -118.349091 226 12089ft 189kts
29-Nov-23 14:41 34.852668 -118.350935 146 13921ft 198kts
29-Nov-23 14:42 34.814700 -118.302106 135 15638ft 200kts
29-Nov-23 14:43 34.775976 -118.252046 135 17281ft 208kts
29-Nov-23 14:44 34.735573 -118.199423 135 18842ft 215kts
29-Nov-23 14:45 34.693948 -118.145260 134 20222ft 223kts
29-Nov-23 14:46 34.650930 -118.089327 134 21599ft 230kts
29-Nov-23 14:47 34.637088 -118.016721 75 22789ft 235kts
29-Nov-23 14:48 34.645177 -117.938390 75 24162ft 232kts
29-Nov-23 14:49 34.653946 -117.857289 75 24873ft 257kts
29-Nov-23 14:50 34.663842 -117.764124 77 24987ft 298kts
29-Nov-23 14:51 34.675151 -117.660523 77 24997ft 320kts
29-Nov-23 14:52 34.686626 -117.551171 78 24999ft 329kts
29-Nov-23 14:53 34.698199 -117.440529 79 25007ft 331kts
29-Nov-23 14:53 34.707920 -117.347873 79 25006ft 333kts
29-Nov-23 14:55 34.721493 -117.217077 80 24989ft 333kts
29-Nov-23 14:56 34.733496 -117.105939 80 24980ft 330kts
29-Nov-23 14:57 34.744662 -116.995544 80 24955ft 328kts
29-Nov-23 14:57 34.753914 -116.903560 81 24972ft 327kts
29-Nov-23 14:58 34.764853 -116.794018 81 24959ft 326kts
29-Nov-23 14:59 34.775682 -116.684672 82 24951ft 325kts
29-Nov-23 15:01 34.788281 -116.557610 82 24945ft 323kts
29-Nov-23 15:02 34.803664 -116.450412 66 24950ft 322kts
29-Nov-23 15:02 34.838676 -116.370111 60 24949ft 321kts
29-Nov-23 15:03 34.881397 -116.274951 61 24950ft 321kts
29-Nov-23 15:04 34.923949 -116.179562 61 24955ft 320kts
29-Nov-23 15:05 34.966411 -116.084028 62 24964ft 319kts
29-Nov-23 15:06 35.008203 -115.989194 63 24973ft 309kts
29-Nov-23 15:07 35.047692 -115.899866 63 24983ft 290kts
29-Nov-23 15:08 35.081333 -115.812934 78 24996ft 278kts
29-Nov-23 15:09 35.097970 -115.719541 80 25003ft 289kts
29-Nov-23 15:10 35.116266 -115.622654 80 25055ft 295kts
29-Nov-23 15:11 35.135344 -115.523923 81 24598ft 303kts
29-Nov-23 15:12 35.153519 -115.427480 79 22471ft 285kts
29-Nov-23 15:13 35.171845 -115.334900 79 20374ft 276kts
29-Nov-23 15:14 35.189446 -115.243567 79 18427ft 273kts
29-Nov-23 15:15 35.206403 -115.154680 78 16415ft 264kts
29-Nov-23 15:16 35.237769 -115.077211 32 14644ft 270kts
29-Nov-23 15:17 35.307161 -115.036996 24 13279ft 277kts
29-Nov-23 15:18 35.376243 -114.998173 24 11773ft 267kts
29-Nov-23 15:19 35.442905 -114.960849 20 10383ft 260kts
29-Nov-23 15:20 35.509202 -114.971302 339 9594ft 242kts
29-Nov-23 15:21 35.571604 -114.997463 339 9051ft 228kts
29-Nov-23 15:22 35.632865 -115.023646 339 9041ft 234kts
29-Nov-23 15:23 35.694642 -115.049660 343 9046ft 235kts
29-Nov-23 15:24 35.761063 -115.056009 355 9043ft 243kts
29-Nov-23 15:25 35.829589 -115.059774 356 8377ft 246kts
29-Nov-23 15:26 35.894480 -115.063063 356 8058ft 223kts
29-Nov-23 15:27 35.955857 -115.066059 356 8050ft 221kts
29-Nov-23 15:28 36.015919 -115.074850 323 8040ft 215kts
29-Nov-23 15:29 36.064298 -115.118294 321 8013ft 215kts
29-Nov-23 15:30 36.111848 -115.162910 321 8011ft 214kts
29-Nov-23 15:31 36.158894 -115.207185 321 8003ft 210kts
29-Nov-23 15:32 36.199871 -115.254234 311 7996ft 198kts
29-Nov-23 15:33 36.237341 -115.304795 311 8002ft 200kts
29-Nov-23 15:34 36.274838 -115.356072 311 8002ft 200kts
29-Nov-23 15:35 36.314604 -115.404459 320 8013ft 201kts
29-Nov-23 15:36 36.361853 -115.433389 359 8006ft 186kts
29-Nov-23 15:37 36.371036 -115.394951 132 7918ft 174kts
29-Nov-23 15:38 36.337085 -115.353083 135 7033ft 171kts
29-Nov-23 15:39 36.306553 -115.316133 128 5050ft 131kts
29-Nov-23 15:40 36.278837 -115.280182 134 4185ft 145kts
29-Nov-23 15:41 36.250490 -115.244373 133 3349ft 145kts
29-Nov-23 15:42 36.226685 -115.214274 133 2680ft 102kts
29-Nov-23 15:43 36.207932 -115.190748 134 2170ft 54kts
29-Nov-23 15:44 36.205849 -115.189731 223 2161ft 0kts
29-Nov-23 15:45 36.204898 -115.191492 312 2162ft 10kts
29-Nov-23 15:46 36.207204 -115.194398 314 2180ft 11kts
29-Nov-23 15:47 36.209619 -115.197447 314 2190ft 12kts
29-Nov-23 15:48 36.209668 -115.198933 138 2194ft 0kts
29-Nov-23 15:49 36.209655 -115.198918 138 2194ft 0kts
29-Nov-23 15:50 36.209655 -115.198918 138 2194ft 0kts
29-Nov-23 15:51 36.209655 -115.198918 138 2194ft 0kts
29-Nov-23 15:52 36.209655 -115.198918 138 2194ft 0kts
29-Nov-23 15:53 36.209655 -115.198918 138 2194ft 0kts
29-Nov-23 15:54 36.209655 -115.198918 138 2194ft 0kts
29-Nov-23 15:55 36.209655 -115.198918 138 2194ft 0kts
29-Nov-23 15:56 36.209655 -115.198918 138 2194ft 0kts

Navigation Log

Ident Type
Flight plan parsing failed, navigation log unavailable